Time;durP1;ratioP1;P1;durP2;ratioP2;P2;SDS_P1;SDS_P2;PMS_P1;PMS_P2;Temp;Humidity;BMP_temperature;BMP_pressure;BME280_temperature;BME280_humidity;BME280_pressure;Samples;Min_cycle;Max_cycle;Signal;HPM_P1;HPM_P2
2022/09/04 00:02:35;;;;;;;4.50;3.83;;;16.60;99.90;;;;;;5036592;28;20469;-79
2022/09/04 00:05:34;;;;;;;3.63;3.20;;;16.70;99.90;;;;;;5036726;28;20491;-80
2022/09/04 00:08:42;;;;;;;3.23;2.90;;;16.60;99.90;;;;;;5037306;28;20460;-80
2022/09/04 00:12:03;;;;;;;3.50;3.20;;;16.60;99.90;;;;;;5032837;28;20464;-79
2022/09/04 00:15:01;;;;;;;4.23;3.07;;;16.40;99.90;;;;;;5034843;28;20396;-81
2022/09/04 00:18:09;;;;;;;3.57;3.03;;;16.40;99.90;;;;;;5038950;28;20407;-80
2022/09/04 00:21:12;;;;;;;3.90;3.60;;;16.40;99.90;;;;;;5037901;28;20407;-81
2022/09/04 00:24:01;;;;;;;4.30;3.90;;;16.40;99.90;;;;;;5036030;28;20477;-81
2022/09/04 00:26:56;;;;;;;3.30;2.93;;;16.30;99.90;;;;;;5039145;28;20392;-81
2022/09/04 00:30:03;;;;;;;3.63;3.20;;;16.30;99.90;;;;;;5039319;28;20428;-81
2022/09/04 00:33:08;;;;;;;2.70;2.50;;;16.30;99.90;;;;;;5024878;28;20392;-81
2022/09/04 00:36:01;;;;;;;3.53;3.20;;;16.20;99.90;;;;;;5039167;28;20408;-81
2022/09/04 00:38:50;;;;;;;4.40;4.07;;;16.20;99.90;;;;;;5036182;28;20456;-81
2022/09/04 00:41:57;;;;;;;4.57;3.60;;;16.00;99.90;;;;;;5017035;28;20408;-81
2022/09/04 00:45:14;;;;;;;3.67;3.27;;;15.80;99.90;;;;;;5031526;28;20443;-81
2022/09/04 00:48:23;;;;;;;3.73;3.30;;;16.00;99.90;;;;;;5023279;28;20416;-81
2022/09/04 00:51:24;;;;;;;3.17;2.97;;;15.80;99.90;;;;;;5021465;28;20413;-81
2022/09/04 00:54:40;;;;;;;12.13;3.60;;;15.70;99.90;;;;;;5032898;28;20395;-81
2022/09/04 00:57:56;;;;;;;3.50;3.20;;;15.80;99.90;;;;;;5033630;28;20455;-81
2022/09/04 01:00:45;;;;;;;4.20;3.67;;;15.80;99.90;;;;;;5037150;28;20419;-79
2022/09/04 01:03:58;;;;;;;4.90;4.40;;;15.80;99.90;;;;;;5039430;28;20404;-78
2022/09/04 01:07:21;;;;;;;3.90;3.50;;;15.90;99.90;;;;;;5038473;28;20431;-80
2022/09/04 01:10:22;;;;;;;6.50;3.60;;;15.90;99.90;;;;;;5038749;28;20412;-80
2022/09/04 01:13:17;;;;;;;3.80;3.50;;;15.60;99.90;;;;;;5038586;28;20398;-80
2022/09/04 01:16:18;;;;;;;3.90;3.60;;;15.50;99.90;;;;;;5038830;28;20455;-78
2022/09/04 01:19:23;;;;;;;3.67;3.20;;;15.50;99.90;;;;;;5039339;28;20399;-78
2022/09/04 01:22:40;;;;;;;4.27;3.87;;;15.40;99.90;;;;;;5038891;28;20383;-79
2022/09/04 01:25:48;;;;;;;5.30;4.80;;;15.30;99.90;;;;;;5038636;28;20470;-77
2022/09/04 01:28:58;;;;;;;4.63;3.93;;;15.30;99.90;;;;;;5039136;28;20380;-78
2022/09/04 01:31:56;;;;;;;5.63;4.53;;;15.40;99.90;;;;;;5038969;28;20411;-79
2022/09/04 01:34:58;;;;;;;3.70;3.40;;;15.60;99.90;;;;;;5025441;28;20456;-78
2022/09/04 01:37:57;;;;;;;5.27;3.70;;;15.70;99.90;;;;;;5034767;28;20388;-81
2022/09/04 01:40:49;;;;;;;4.67;4.20;;;15.70;99.90;;;;;;5033046;28;20428;-81
2022/09/04 01:43:33;;;;;;;5.30;4.30;;;15.70;99.90;;;;;;5032562;28;20376;-81
2022/09/04 01:46:38;;;;;;;4.30;4.00;;;15.80;99.90;;;;;;5032484;28;20399;-81
2022/09/04 01:49:40;;;;;;;4.80;3.30;;;15.80;99.90;;;;;;5021034;28;20380;-80
2022/09/04 01:52:50;;;;;;;4.63;3.90;;;15.80;99.90;;;;;;5038993;28;20460;-80
2022/09/04 01:55:43;;;;;;;4.87;4.20;;;15.70;99.90;;;;;;5037130;28;20388;-81
2022/09/04 01:58:53;;;;;;;4.00;3.70;;;15.70;99.90;;;;;;5020904;28;20383;-81
2022/09/04 02:01:48;;;;;;;4.50;4.10;;;15.60;99.90;;;;;;5019549;28;20431;-81
2022/09/04 02:04:46;;;;;;;4.60;3.97;;;15.70;99.90;;;;;;5035937;28;20439;-81
2022/09/04 02:07:38;;;;;;;5.80;3.90;;;15.70;99.90;;;;;;5034897;28;20388;-80
2022/09/04 02:10:37;;;;;;;6.13;4.23;;;15.70;99.90;;;;;;5035126;28;20415;-81
2022/09/04 02:13:43;;;;;;;4.27;3.67;;;15.70;99.90;;;;;;5035104;28;20383;-81
2022/09/04 02:16:41;;;;;;;4.63;4.27;;;15.90;99.90;;;;;;5034531;28;20535;-80
2022/09/04 02:19:36;;;;;;;4.03;3.73;;;15.70;99.90;;;;;;5034686;28;20431;-80
2022/09/04 02:22:38;;;;;;;4.53;4.13;;;15.80;99.90;;;;;;5033576;28;20388;-81
2022/09/04 02:25:37;;;;;;;4.30;3.90;;;15.70;99.90;;;;;;5034637;28;20450;-81
2022/09/04 02:28:34;;;;;;;4.43;3.70;;;15.60;99.90;;;;;;5034556;28;20406;-81
2022/09/04 02:31:43;;;;;;;7.93;4.70;;;15.60;99.90;;;;;;5034666;28;20391;-81
2022/09/04 02:34:44;;;;;;;7.00;4.33;;;15.50;99.90;;;;;;5034704;28;20728;-81
2022/09/04 02:38:04;;;;;;;4.60;4.13;;;15.40;99.90;;;;;;5033745;28;20383;-81
2022/09/04 02:40:54;;;;;;;5.30;4.80;;;15.50;99.90;;;;;;5034236;28;20391;-81
2022/09/04 02:43:57;;;;;;;6.97;5.20;;;15.50;99.90;;;;;;5034115;28;20916;-81
2022/09/04 02:46:53;;;;;;;4.10;3.80;;;15.60;99.90;;;;;;5034233;28;20400;-81
2022/09/04 02:49:54;;;;;;;4.30;4.00;;;15.80;99.90;;;;;;5033896;28;20408;-81
2022/09/04 02:53:03;;;;;;;4.20;3.90;;;15.80;99.90;;;;;;5033827;28;20407;-80
2022/09/04 02:56:09;;;;;;;3.90;3.60;;;15.80;99.90;;;;;;5034073;28;20375;-80
2022/09/04 02:59:30;;;;;;;4.07;3.67;;;15.90;99.90;;;;;;5033371;28;20498;-81
2022/09/04 03:02:22;;;;;;;3.80;3.50;;;16.20;99.90;;;;;;5023760;28;20437;-80
2022/09/04 03:05:18;;;;;;;3.50;3.20;;;16.30;99.90;;;;;;5033854;28;20962;-80
2022/09/04 03:08:24;;;;;;;3.63;3.33;;;16.20;99.90;;;;;;5033601;28;20376;-80
2022/09/04 03:11:25;;;;;;;4.40;4.00;;;15.90;99.90;;;;;;5034398;28;20419;-80
2022/09/04 03:14:23;;;;;;;5.30;4.90;;;15.60;99.90;;;;;;5033411;28;20388;-80
2022/09/04 03:17:15;;;;;;;4.80;4.30;;;15.60;99.90;;;;;;5014263;28;20437;-80
2022/09/04 03:20:10;;;;;;;4.33;3.93;;;15.80;99.90;;;;;;5013898;28;20391;-80
2022/09/04 03:23:04;;;;;;;5.20;4.60;;;15.80;99.90;;;;;;5014064;28;20393;-80
2022/09/04 03:26:11;;;;;;;6.33;4.80;;;15.90;99.90;;;;;;5013279;28;20512;-80
2022/09/04 03:29:23;;;;;;;4.40;3.97;;;16.30;99.90;;;;;;5013692;28;20555;-80
2022/09/04 03:32:20;;;;;;;6.07;4.70;;;16.50;99.90;;;;;;5013526;28;20467;-80
2022/09/04 03:35:25;;;;;;;6.20;5.00;;;16.70;99.90;;;;;;5013293;28;20389;-80
2022/09/04 03:38:29;;;;;;;3.87;3.43;;;16.70;99.90;;;;;;5013674;28;20412;-80
2022/09/04 03:41:31;;;;;;;14.50;4.77;;;16.80;99.90;;;;;;5012744;28;20432;-80
2022/09/04 03:44:40;;;;;;;7.10;4.80;;;16.90;99.90;;;;;;5013977;28;20467;-80
2022/09/04 03:47:44;;;;;;;9.63;5.60;;;16.90;99.90;;;;;;5013541;28;20416;-80
2022/09/04 03:50:46;;;;;;;8.13;6.13;;;16.90;99.90;;;;;;5015370;28;20417;-80
2022/09/04 03:53:46;;;;;;;8.97;7.37;;;16.90;99.90;;;;;;5007751;28;20465;-80
2022/09/04 03:56:48;;;;;;;5.53;4.37;;;16.80;99.90;;;;;;5013184;28;20411;-80
2022/09/04 04:00:11;;;;;;;10.73;6.70;;;16.90;99.90;;;;;;5013125;28;20391;-80
2022/09/04 04:03:06;;;;;;;10.80;7.40;;;16.90;99.90;;;;;;5001041;28;20429;-80
2022/09/04 04:06:11;;;;;;;9.70;6.63;;;16.80;99.90;;;;;;5012494;28;20512;-80
2022/09/04 04:09:30;;;;;;;8.63;5.60;;;16.80;99.90;;;;;;5012735;28;20392;-80
2022/09/04 04:12:45;;;;;;;7.83;6.87;;;16.80;99.90;;;;;;5013030;28;20397;-80
2022/09/04 04:15:54;;;;;;;14.83;7.30;;;16.80;99.90;;;;;;5018781;28;20471;-80
2022/09/04 04:18:58;;;;;;;10.57;6.70;;;16.80;99.90;;;;;;5020475;28;20399;-80
2022/09/04 04:22:15;;;;;;;14.60;7.50;;;16.80;99.90;;;;;;5032664;28;20396;-80
2022/09/04 04:25:23;;;;;;;10.03;6.60;;;16.70;99.90;;;;;;5022174;28;20986;-80
2022/09/04 04:28:37;;;;;;;14.13;7.97;;;16.70;99.90;;;;;;5032663;28;20387;-80
2022/09/04 04:35:16;;;;;;;12.60;6.90;;;16.60;99.90;;;;;;5019430;28;20388;-81
2022/09/04 04:38:18;;;;;;;11.00;7.77;;;16.40;99.90;;;;;;5032569;28;20965;-79
2022/09/04 04:41:20;;;;;;;7.77;6.17;;;15.90;99.90;;;;;;5031890;28;20387;-80
2022/09/04 04:45:48;;;;;;;10.30;6.50;;;15.80;99.90;;;;;;5031343;28;20474;-80
2022/09/04 04:47:53;;;;;;;11.57;6.57;;;15.80;99.90;;;;;;5031780;28;20407;-80
2022/09/04 04:50:48;;;;;;;11.90;6.70;;;15.70;99.90;;;;;;5031646;28;20469;-79
2022/09/04 04:53:44;;;;;;;9.87;8.27;;;15.80;99.90;;;;;;5030384;28;20392;-81
2022/09/04 04:56:44;;;;;;;15.80;8.70;;;15.70;99.90;;;;;;5031097;28;20470;-80
2022/09/04 05:00:02;;;;;;;11.97;8.07;;;15.60;99.90;;;;;;5031507;28;20419;-80
2022/09/04 05:03:05;;;;;;;21.40;10.23;;;15.60;99.90;;;;;;5030443;28;20403;-81
2022/09/04 05:06:16;;;;;;;19.80;9.60;;;15.70;99.90;;;;;;5015600;28;20457;-79
2022/09/04 05:09:24;;;;;;;11.03;7.97;;;15.60;99.90;;;;;;5030828;28;20396;-81
2022/09/04 05:12:22;;;;;;;15.77;10.13;;;15.60;99.90;;;;;;5030847;28;20414;-80
2022/09/04 05:15:17;;;;;;;15.33;9.60;;;15.60;99.90;;;;;;5015871;28;20463;-80
2022/09/04 05:18:13;;;;;;;25.23;11.70;;;15.40;99.90;;;;;;5032068;28;20383;-80
2022/09/04 05:21:16;;;;;;;27.13;11.07;;;15.30;99.90;;;;;;5030810;28;20505;-80
2022/09/04 05:24:18;;;;;;;26.73;12.00;;;15.30;99.90;;;;;;5031511;28;20403;-80
2022/09/04 05:27:16;;;;;;;25.63;12.00;;;15.50;99.90;;;;;;5030887;28;20379;-80
2022/09/04 05:30:09;;;;;;;24.00;11.67;;;15.50;99.90;;;;;;5031210;28;20416;-80
2022/09/04 05:33:27;;;;;;;27.07;9.67;;;15.60;99.90;;;;;;5031809;28;20391;-80
2022/09/04 05:36:47;;;;;;;22.73;10.67;;;15.30;99.90;;;;;;5032016;28;20387;-80
2022/09/04 05:40:08;;;;;;;22.60;10.77;;;15.30;99.90;;;;;;5021551;28;20391;-81
2022/09/04 05:43:05;;;;;;;23.03;10.80;;;15.30;99.90;;;;;;5031071;28;20391;-80
2022/09/04 05:46:29;;;;;;;24.67;11.13;;;15.30;99.90;;;;;;5031658;28;20450;-81
2022/09/04 05:49:48;;;;;;;24.83;10.73;;;15.40;99.90;;;;;;5031848;28;20392;-81
2022/09/04 05:52:54;;;;;;;17.80;9.10;;;15.50;99.90;;;;;;5016819;28;20453;-81
2022/09/04 05:56:05;;;;;;;24.00;12.50;;;15.50;99.90;;;;;;5031170;28;20419;-81
2022/09/04 05:59:06;;;;;;;22.03;11.60;;;15.50;99.90;;;;;;5020447;28;20391;-81
2022/09/04 06:02:18;;;;;;;22.73;11.40;;;15.60;99.90;;;;;;5031681;28;20383;-81
2022/09/04 06:05:31;;;;;;;17.80;11.00;;;15.60;99.90;;;;;;5037547;28;20478;-81
2022/09/04 06:08:29;;;;;;;13.27;8.60;;;15.60;99.90;;;;;;5037686;28;20404;-80
2022/09/04 06:11:45;;;;;;;21.83;11.13;;;15.80;99.90;;;;;;5037631;28;20407;-80
2022/09/04 06:14:58;;;;;;;19.53;10.30;;;15.90;99.90;;;;;;5037767;28;20407;-81
2022/09/04 06:18:00;;;;;;;13.43;10.10;;;16.00;99.90;;;;;;5017662;28;20392;-81
2022/09/04 06:21:12;;;;;;;13.70;8.87;;;16.10;99.90;;;;;;5018036;28;20392;-81
2022/09/04 06:24:18;;;;;;;12.50;8.13;;;16.10;99.90;;;;;;5002710;28;20473;-81
2022/09/04 06:27:23;;;;;;;13.90;9.43;;;16.10;99.90;;;;;;5012285;28;20457;-81
2022/09/04 06:30:11;;;;;;;14.67;10.00;;;16.30;99.90;;;;;;5011692;28;20397;-81
2022/09/04 06:33:10;;;;;;;16.07;11.20;;;16.60;99.90;;;;;;5008900;28;20406;-80
2022/09/04 06:36:14;;;;;;;17.73;11.43;;;16.30;99.90;;;;;;5012469;28;20401;-80
2022/09/04 06:39:33;;;;;;;11.50;9.73;;;16.60;99.90;;;;;;5015994;28;20408;-80
2022/09/04 06:42:37;;;;;;;15.40;8.93;;;16.70;99.90;;;;;;5014939;28;20396;-81
2022/09/04 06:45:43;;;;;;;11.90;9.57;;;16.40;99.90;;;;;;5015063;28;20456;-80
2022/09/04 06:48:48;;;;;;;13.23;8.73;;;16.50;99.90;;;;;;5013868;28;20413;-79
2022/09/04 06:51:44;;;;;;;10.73;8.70;;;16.60;99.90;;;;;;5013798;28;20436;-80
2022/09/04 06:54:46;;;;;;;12.23;8.90;;;16.60;99.90;;;;;;5014296;28;20396;-81
2022/09/04 06:57:51;;;;;;;12.73;8.40;;;16.90;99.90;;;;;;5014357;28;20427;-81
2022/09/04 07:00:52;;;;;;;13.10;8.20;;;17.10;99.90;;;;;;5013865;28;20396;-80
2022/09/04 07:03:54;;;;;;;12.50;10.20;;;17.30;99.90;;;;;;5013107;28;20423;-79
2022/09/04 07:06:58;;;;;;;10.53;9.50;;;17.50;99.90;;;;;;5015332;28;20763;-81
2022/09/04 07:09:51;;;;;;;11.10;9.23;;;17.60;99.90;;;;;;5000967;28;20400;-80
2022/09/04 07:13:05;;;;;;;11.63;10.43;;;17.70;99.90;;;;;;5012610;28;20393;-80
2022/09/04 07:16:11;;;;;;;8.57;7.77;;;17.70;99.90;;;;;;5024055;28;20443;-81
2022/09/04 07:19:19;;;;;;;10.53;9.40;;;17.90;99.90;;;;;;5032473;28;20460;-81
2022/09/04 07:22:27;;;;;;;9.10;8.27;;;17.60;99.90;;;;;;5032430;28;20388;-81
2022/09/04 07:25:25;;;;;;;10.40;9.30;;;17.40;99.90;;;;;;5032491;28;20447;-81
2022/09/04 07:28:31;;;;;;;10.80;9.70;;;17.30;99.90;;;;;;5016964;28;20399;-81
2022/09/04 07:31:29;;;;;;;11.60;10.40;;;17.50;99.90;;;;;;5033104;28;20479;-79
2022/09/04 07:34:47;;;;;;;12.67;11.37;;;17.50;99.90;;;;;;5032696;28;20392;-81
2022/09/04 07:38:01;;;;;;;10.30;8.90;;;17.30;99.90;;;;;;5034232;28;20479;-81
2022/09/04 07:40:55;;;;;;;12.27;10.90;;;17.20;99.90;;;;;;5034786;28;20460;-80
2022/09/04 07:44:21;;;;;;;11.17;10.00;;;17.00;99.90;;;;;;5034382;28;20419;-80
2022/09/04 07:47:28;;;;;;;10.43;9.17;;;17.00;99.90;;;;;;5035669;28;20408;-80
2022/09/04 07:50:23;;;;;;;12.00;9.83;;;17.60;99.90;;;;;;5034734;28;20383;-80
2022/09/04 07:53:29;;;;;;;12.50;9.80;;;17.90;99.90;;;;;;5032431;28;20456;-81
2022/09/04 07:56:33;;;;;;;12.20;11.00;;;17.90;99.90;;;;;;5017263;28;20451;-81
2022/09/04 07:59:38;;;;;;;11.57;10.10;;;17.90;99.90;;;;;;5031126;28;20402;-80
2022/09/04 08:02:43;;;;;;;9.90;8.90;;;18.40;99.90;;;;;;5016837;28;20388;-81
2022/09/04 08:05:43;;;;;;;9.83;8.83;;;18.80;99.90;;;;;;5016615;28;20474;-81
2022/09/04 08:08:49;;;;;;;9.33;8.40;;;18.90;99.90;;;;;;5031553;28;20399;-81
2022/09/04 08:11:48;;;;;;;10.40;9.40;;;19.20;99.90;;;;;;5032022;28;20396;-80
2022/09/04 08:15:02;;;;;;;8.77;7.93;;;19.30;99.90;;;;;;5033024;28;20391;-80
2022/09/04 08:18:09;;;;;;;9.60;8.63;;;19.50;99.90;;;;;;5011988;28;20400;-81
2022/09/04 08:21:10;;;;;;;10.03;9.03;;;19.20;99.90;;;;;;5012348;28;20392;-81
2022/09/04 08:24:21;;;;;;;9.10;8.20;;;19.10;99.90;;;;;;5011568;28;20388;-80
2022/09/04 08:27:22;;;;;;;10.43;8.60;;;19.10;99.90;;;;;;5012609;28;20397;-81
2022/09/04 08:30:09;;;;;;;10.87;9.13;;;19.40;99.90;;;;;;5012731;28;20392;-81
2022/09/04 08:33:15;;;;;;;8.40;7.53;;;19.50;99.90;;;;;;5011392;28;20413;-82
2022/09/04 08:36:25;;;;;;;9.40;8.20;;;19.70;99.90;;;;;;5011026;28;20556;-80
2022/09/04 08:39:21;;;;;;;9.77;8.70;;;19.80;99.90;;;;;;5011225;28;20501;-80
2022/09/04 08:42:37;;;;;;;7.90;7.10;;;20.10;99.90;;;;;;5011492;28;20400;-80
2022/09/04 08:45:48;;;;;;;7.93;7.10;;;20.20;99.90;;;;;;5000557;28;20469;-81
2022/09/04 08:49:09;;;;;;;8.13;7.33;;;20.10;99.90;;;;;;5009647;28;20713;-78
2022/09/04 08:52:17;;;;;;;7.90;7.10;;;20.30;99.90;;;;;;5009803;28;20416;-80
2022/09/04 08:55:37;;;;;;;8.87;8.07;;;20.70;99.90;;;;;;5008966;28;20464;-80
2022/09/04 08:59:01;;;;;;;9.60;8.20;;;20.50;99.90;;;;;;5008950;28;20440;-80
2022/09/04 09:02:10;;;;;;;9.87;8.97;;;20.80;99.90;;;;;;4999111;28;20445;-80
2022/09/04 09:05:21;;;;;;;8.87;7.97;;;20.40;99.90;;;;;;5010516;28;20468;-80
2022/09/04 09:08:37;;;;;;;9.00;8.10;;;20.40;99.90;;;;;;5011668;28;20393;-81
2022/09/04 09:11:51;;;;;;;8.90;6.80;;;21.10;99.90;;;;;;5011458;28;20389;-80
2022/09/04 09:15:10;;;;;;;11.80;7.20;;;21.50;99.90;;;;;;5011532;28;20403;-80
2022/09/04 09:18:08;;;;;;;8.03;7.23;;;21.60;99.90;;;;;;5016455;28;20473;-81
2022/09/04 09:21:05;;;;;;;8.10;7.40;;;22.00;99.90;;;;;;5031644;28;20376;-81
2022/09/04 09:24:23;;;;;;;7.67;7.00;;;22.40;99.90;;;;;;5030612;28;20392;-81
2022/09/04 09:27:39;;;;;;;7.40;6.70;;;22.60;99.90;;;;;;5031006;28;20407;-81
2022/09/04 09:30:24;;;;;;;7.57;6.87;;;22.80;99.90;;;;;;5030496;28;20380;-80
2022/09/04 09:33:41;;;;;;;8.30;7.50;;;22.80;99.90;;;;;;5031049;28;20537;-81
2022/09/04 09:36:43;;;;;;;6.97;6.27;;;22.90;99.90;;;;;;5019724;28;20392;-81
2022/09/04 09:39:57;;;;;;;6.60;5.97;;;22.90;99.90;;;;;;5014339;28;20502;-80
2022/09/04 09:43:11;;;;;;;7.70;7.00;;;23.10;99.90;;;;;;5017289;28;20387;-81
2022/09/04 09:46:13;;;;;;;7.80;7.20;;;23.30;99.90;;;;;;5029401;28;20516;-81
2022/09/04 09:49:31;;;;;;;7.57;6.83;;;23.20;99.90;;;;;;5028776;28;20415;-80
2022/09/04 09:52:51;;;;;;;8.10;7.40;;;23.60;99.90;;;;;;5019362;28;20423;-80
2022/09/04 09:56:07;;;;;;;11.70;10.00;;;23.10;99.90;;;;;;5027669;28;20424;-81
2022/09/04 09:59:27;;;;;;;8.70;7.77;;;23.30;99.90;;;;;;5028331;28;20475;-81
2022/09/04 10:02:42;;;;;;;7.60;6.90;;;23.60;99.90;;;;;;5019279;28;20399;-81
2022/09/04 10:06:02;;;;;;;7.77;7.10;;;24.00;99.90;;;;;;5029117;28;20524;-81
2022/09/04 10:09:13;;;;;;;7.67;6.97;;;24.40;99.90;;;;;;5029696;28;20443;-81
2022/09/04 10:12:32;;;;;;;6.90;6.30;;;23.90;99.90;;;;;;5031339;28;20440;-80
2022/09/04 10:15:44;;;;;;;7.27;6.67;;;24.70;99.90;;;;;;5033586;28;20470;-81
2022/09/04 10:19:02;;;;;;;8.20;5.47;;;23.70;99.90;;;;;;5034634;28;20448;-82
2022/09/04 10:22:26;;;;;;;5.53;5.13;;;24.30;99.90;;;;;;5020727;28;20406;-81
2022/09/04 10:25:31;;;;;;;6.57;5.97;;;25.10;99.90;;;;;;5033437;28;20451;-81
2022/09/04 10:28:47;;;;;;;9.80;8.90;;;25.60;99.90;;;;;;5033701;28;20388;-81
2022/09/04 10:32:03;;;;;;;4.60;4.27;;;24.90;99.90;;;;;;5019179;28;20395;-81
2022/09/04 10:35:02;;;;;;;4.73;4.43;;;24.80;99.90;;;;;;5018248;28;20456;-80
2022/09/04 10:38:24;;;;;;;7.03;3.83;;;24.70;99.90;;;;;;5038751;28;20399;-80
2022/09/04 10:41:43;;;;;;;4.47;3.90;;;25.90;99.90;;;;;;5038811;28;20391;-80
2022/09/04 10:44:58;;;;;;;3.40;3.10;;;27.10;99.90;;;;;;5032663;28;20446;-78
2022/09/04 10:48:03;;;;;;;5.07;3.67;;;27.00;99.90;;;;;;5032160;28;20387;-80
2022/09/04 10:51:15;;;;;;;4.00;3.70;;;26.50;99.90;;;;;;5016623;28;20394;-80
2022/09/04 10:54:29;;;;;;;3.20;2.90;;;26.40;99.90;;;;;;5031579;28;20386;-79
2022/09/04 10:57:44;;;;;;;3.70;3.50;;;27.60;99.90;;;;;;5029950;28;20965;-79
2022/09/04 11:00:55;;;;;;;6.73;3.10;;;27.40;99.90;;;;;;5006305;28;20394;-80
2022/09/04 11:04:00;;;;;;;3.70;3.40;;;27.00;99.90;;;;;;5019132;28;20419;-78
2022/09/04 11:07:08;;;;;;;4.27;3.10;;;26.50;99.90;;;;;;5003779;28;20423;-79
2022/09/04 11:10:07;;;;;;;3.33;3.03;;;26.60;99.90;;;;;;5029820;28;20427;-79
2022/09/04 11:13:20;;;;;;;3.83;3.37;;;26.40;99.90;;;;;;5014321;28;20503;-79
2022/09/04 11:16:37;;;;;;;3.50;3.00;;;26.80;99.90;;;;;;5032034;28;20478;-81
2022/09/04 11:19:55;;;;;;;2.40;2.20;;;27.20;99.90;;;;;;5015986;28;20407;-79
2022/09/04 11:23:18;;;;;;;3.73;3.43;;;27.30;99.90;;;;;;5026173;28;20387;-80
2022/09/04 11:26:39;;;;;;;4.37;3.97;;;26.90;99.90;;;;;;4984463;28;20521;-81
2022/09/04 11:30:01;;;;;;;3.07;2.70;;;29.00;99.90;;;;;;4971110;28;20538;-81
2022/09/04 11:33:15;;;;;;;2.83;2.63;;;30.40;99.90;;;;;;4944606;28;20988;-81
2022/09/04 11:36:38;;;;;;;2.78;2.58;;;31.10;99.90;;;;;;4967955;28;20189;-80
2022/09/04 11:39:47;;;;;;;2.72;2.53;;;31.60;97.00;;;;;;4968376;28;20188;-80
2022/09/04 11:42:49;;;;;;;2.65;2.45;;;31.10;95.90;;;;;;4980672;28;20242;-80
2022/09/04 11:45:58;;;;;;;4.60;4.18;;;30.40;94.50;;;;;;4968323;28;20252;-80
2022/09/04 11:49:06;;;;;;;2.95;2.70;;;29.40;96.80;;;;;;4967625;28;20169;-80
2022/09/04 11:52:08;;;;;;;2.43;2.27;;;28.40;99.30;;;;;;4948458;29;20222;-79
2022/09/04 11:55:17;;;;;;;2.43;2.23;;;27.70;99.90;;;;;;4961931;29;20182;-80
2022/09/04 11:58:21;;;;;;;3.20;3.00;;;27.70;99.90;;;;;;4966936;28;20432;-81
2022/09/04 12:01:25;;;;;;;3.07;2.87;;;28.60;99.90;;;;;;4981927;28;20564;-80
2022/09/04 12:04:37;;;;;;;3.33;2.45;;;29.80;99.90;;;;;;4981229;28;20205;-80
2022/09/04 12:07:49;;;;;;;2.40;2.30;;;30.70;94.90;;;;;;4981496;28;20193;-80
2022/09/04 12:11:08;;;;;;;3.90;2.85;;;29.20;95.20;;;;;;4982271;28;20173;-79
2022/09/04 12:14:07;;;;;;;3.17;2.60;;;28.00;98.80;;;;;;4982164;28;20193;-79
2022/09/04 12:17:16;;;;;;;2.50;2.30;;;27.60;99.90;;;;;;4943072;29;20233;-79
2022/09/04 12:20:35;;;;;;;3.08;2.78;;;29.20;98.50;;;;;;4929090;29;20221;-81
2022/09/04 12:23:41;;;;;;;2.58;2.38;;;30.70;92.00;;;;;;4926828;29;20276;-80
2022/09/04 12:26:49;;;;;;;2.70;2.50;;;30.90;90.20;;;;;;4936833;29;20194;-81
2022/09/04 12:30:00;;;;;;;2.55;2.42;;;31.90;88.10;;;;;;4937221;29;20215;-80
2022/09/04 12:33:12;;;;;;;2.30;2.20;;;32.80;82.40;;;;;;4923448;29;20644;-80
2022/09/04 12:36:36;;;;;;;2.47;2.33;;;33.70;78.60;;;;;;4936640;29;20752;-80
2022/09/04 12:39:57;;;;;;;2.47;2.28;;;33.40;75.90;;;;;;4933305;29;20192;-79
2022/09/04 12:43:07;;;;;;;2.50;2.25;;;32.80;75.20;;;;;;4932043;29;20667;-80
2022/09/04 12:46:11;;;;;;;2.53;2.33;;;33.20;76.50;;;;;;4942807;29;20268;-81
2022/09/04 12:49:26;;;;;;;2.83;2.00;;;30.90;77.10;;;;;;4943998;29;20719;-80
2022/09/04 12:52:36;;;;;;;2.50;2.33;;;31.50;79.50;;;;;;4923468;29;20199;-80
2022/09/04 12:55:38;;;;;;;2.10;1.98;;;30.40;81.60;;;;;;4931271;29;20242;-79
2022/09/04 12:58:54;;;;;;;2.72;2.50;;;31.30;80.10;;;;;;4909229;29;20229;-79
2022/09/04 13:01:55;;;;;;;3.55;2.38;;;30.70;79.40;;;;;;4932039;29;20264;-79
2022/09/04 13:04:56;;;;;;;2.28;2.10;;;30.80;78.70;;;;;;4932475;29;20200;-81
2022/09/04 13:08:02;;;;;;;2.25;2.00;;;30.30;80.70;;;;;;4931981;29;20199;-80
2022/09/04 13:11:08;;;;;;;2.10;2.00;;;29.90;81.70;;;;;;4919219;29;20251;-81
2022/09/04 13:14:17;;;;;;;2.00;1.90;;;30.30;81.20;;;;;;4932203;29;20222;-81
2022/09/04 13:17:30;;;;;;;2.17;2.08;;;31.20;78.30;;;;;;4932478;29;20214;-81
2022/09/04 13:20:34;;;;;;;2.50;2.30;;;31.90;75.10;;;;;;4934939;29;20206;-79
2022/09/04 13:23:48;;;;;;;2.00;1.90;;;33.00;72.10;;;;;;4935596;29;20247;-81
2022/09/04 13:26:50;;;;;;;2.78;2.58;;;32.60;73.80;;;;;;4933357;29;20170;-81
2022/09/04 13:30:09;;;;;;;2.42;2.22;;;30.60;77.00;;;;;;4964992;28;20193;-80
2022/09/04 13:33:18;;;;;;;5.55;5.15;;;31.20;75.60;;;;;;5002748;28;20251;-79
2022/09/04 13:36:34;;;;;;;5.63;2.90;;;31.20;75.60;;;;;;5036116;28;20227;-80
2022/09/04 13:39:42;;;;;;;2.63;2.42;;;30.50;79.10;;;;;;5032338;28;20172;-81
2022/09/04 13:42:56;;;;;;;2.13;2.03;;;30.90;77.20;;;;;;5030915;28;20529;-80
2022/09/04 13:45:51;;;;;;;2.65;2.45;;;31.70;77.20;;;;;;5017006;28;20220;-80
2022/09/04 13:48:58;;;;;;;2.58;2.38;;;32.00;73.50;;;;;;5033535;28;20231;-79
2022/09/04 13:51:50;;;;;;;7.13;2.28;;;31.20;74.70;;;;;;5032923;28;20172;-80
2022/09/04 13:54:42;;;;;;;2.97;2.75;;;30.50;75.10;;;;;;4976818;28;20227;-80
2022/09/04 13:57:34;;;;;;;2.63;2.42;;;31.30;75.30;;;;;;5031598;28;20203;-80
2022/09/04 14:00:20;;;;;;;2.30;2.20;;;31.70;75.30;;;;;;5030111;28;20164;-78
2022/09/04 14:03:09;;;;;;;2.40;2.20;;;32.60;72.20;;;;;;5031649;28;20168;-79
2022/09/04 14:05:54;;;;;;;2.42;2.22;;;32.30;73.00;;;;;;5018504;28;20164;-78
2022/09/04 14:08:42;;;;;;;3.05;2.30;;;31.20;74.60;;;;;;5018195;28;20199;-80
2022/09/04 14:11:44;;;;;;;2.10;2.00;;;31.10;75.70;;;;;;5016737;28;20232;-79
2022/09/04 14:14:58;;;;;;;2.67;2.10;;;30.60;76.00;;;;;;5036404;28;20215;-78
2022/09/04 14:18:03;;;;;;;8.68;7.85;;;29.80;77.60;;;;;;5038375;28;20191;-78
2022/09/04 14:20:56;;;;;;;1.73;1.63;;;29.50;79.80;;;;;;5011153;28;20167;-78
2022/09/04 14:24:12;;;;;;;2.17;2.08;;;30.00;79.40;;;;;;5038847;28;20168;-78
2022/09/04 14:27:33;;;;;;;2.63;2.35;;;30.20;80.10;;;;;;5027678;28;20612;-79
2022/09/04 14:30:21;;;;;;;2.20;2.00;;;31.50;75.40;;;;;;5037476;28;20222;-79
2022/09/04 14:33:34;;;;;;;2.55;2.35;;;30.50;74.20;;;;;;5038211;28;20180;-79
2022/09/04 14:36:41;;;;;;;2.20;2.10;;;29.30;79.10;;;;;;5038013;28;20183;-79
2022/09/04 14:39:43;;;;;;;2.55;2.35;;;29.10;80.90;;;;;;5038039;28;20155;-79
2022/09/04 14:42:44;;;;;;;1.85;1.75;;;29.90;78.60;;;;;;5037747;28;20241;-80
2022/09/04 14:45:52;;;;;;;2.17;2.08;;;29.80;78.40;;;;;;5037453;28;20176;-79
2022/09/04 14:48:40;;;;;;;2.28;2.08;;;31.10;75.80;;;;;;5036083;28;20184;-80
2022/09/04 14:51:36;;;;;;;2.05;1.95;;;29.90;76.90;;;;;;5021886;28;20160;-79
2022/09/04 14:54:30;;;;;;;2.20;2.10;;;30.90;76.20;;;;;;5036769;28;20203;-79
2022/09/04 14:57:31;;;;;;;2.35;2.15;;;29.90;77.00;;;;;;5029096;28;20228;-81
2022/09/04 15:00:18;;;;;;;2.10;1.98;;;30.50;77.10;;;;;;5037555;28;20190;-79
2022/09/04 15:03:20;;;;;;;2.40;2.25;;;31.60;73.90;;;;;;5036683;28;20168;-79
2022/09/04 15:06:15;;;;;;;2.90;2.10;;;32.40;71.80;;;;;;5037123;28;20164;-78
2022/09/04 15:09:15;;;;;;;3.03;2.33;;;31.20;70.90;;;;;;5038147;28;20171;-80
2022/09/04 15:12:17;;;;;;;2.40;2.25;;;29.80;76.70;;;;;;5035002;28;20194;-80
2022/09/04 15:15:14;;;;;;;2.13;2.03;;;29.80;78.70;;;;;;5032618;28;20259;-82
2022/09/04 15:18:19;;;;;;;3.15;2.20;;;29.90;78.20;;;;;;5019969;28;20219;-81
2022/09/04 15:21:21;;;;;;;3.03;2.83;;;29.90;76.60;;;;;;5031197;28;20179;-82
2022/09/04 15:24:36;;;;;;;2.53;2.33;;;29.70;78.00;;;;;;5032122;28;20192;-81
2022/09/04 15:27:30;;;;;;;3.65;3.35;;;30.10;77.70;;;;;;5034606;28;20160;-78
2022/09/04 15:30:27;;;;;;;2.50;2.30;;;29.80;78.40;;;;;;5032410;28;20168;-80
2022/09/04 15:33:18;;;;;;;6.28;2.67;;;29.60;77.70;;;;;;5030875;28;20171;-78
2022/09/04 15:36:13;;;;;;;2.50;2.30;;;29.30;81.30;;;;;;5032229;28;20203;-80
2022/09/04 15:39:03;;;;;;;2.53;2.33;;;29.00;80.00;;;;;;5031373;28;20157;-81
2022/09/04 15:41:49;;;;;;;2.30;2.15;;;29.00;79.50;;;;;;5032047;28;20187;-81
2022/09/04 15:44:42;;;;;;;3.15;2.00;;;29.50;78.20;;;;;;5031430;28;20215;-81
2022/09/04 15:47:56;;;;;;;2.25;2.05;;;28.60;80.70;;;;;;5031956;28;20235;-79
2022/09/04 15:51:10;;;;;;;2.60;2.40;;;29.10;80.90;;;;;;5017390;28;20187;-79
2022/09/04 15:54:23;;;;;;;3.55;2.47;;;29.10;81.50;;;;;;5033548;28;20167;-80
2022/09/04 15:57:23;;;;;;;2.97;2.65;;;29.40;78.60;;;;;;5010928;28;20207;-81
2022/09/04 16:00:13;;;;;;;2.30;2.15;;;29.60;79.60;;;;;;5030682;28;20175;-79
2022/09/04 16:03:16;;;;;;;2.38;2.28;;;29.40;78.30;;;;;;5032586;28;20164;-81
2022/09/04 16:06:08;;;;;;;2.60;2.40;;;29.70;78.00;;;;;;5017618;28;20166;-78